Aplin, Arkansas
Current Conditions -  °F | °C
As of 9:53 AM on Wednesday 28 Jan 2015 (Local Time) from KRUE Reporting Station
Clear Clear  
Wind Chill:   Ceiling: Unl
Heat Index:   Visibility: 10mi
Dew Point:   Wind: 9mph
Humidity: 66%   Direction: 100°E
Pressure: 30.22"   Gusts: NA
Location:  34.9067°N, 93.0072°W
Report Text: KRUE 281553Z AUTO 10008KT 10SM CLR 08/02 A3022 RMK AO2 SLP231 T00830022
Loading
Personal Weather Stations






























Interactive Weather Map New forecast layout! Learn more

10-Day Weather Forecast

Advertisements
Track Severe Weather on mobile